sensor_id;sensor_type;location;lat;lon;timestamp;P1;durP1;ratioP1;P2;durP2;ratioP2
62863;SDS011;48954;59.950;11.014;2022-10-20T00:01:08;3.40;;;1.50;;
62863;SDS011;48954;59.950;11.014;2022-10-20T00:03:38;7.30;;;1.90;;
62863;SDS011;48954;59.950;11.014;2022-10-20T00:08:38;6.00;;;2.90;;
62863;SDS011;48954;59.950;11.014;2022-10-20T00:11:06;4.60;;;2.00;;
62863;SDS011;48954;59.950;11.014;2022-10-20T00:13:33;5.40;;;2.10;;
62863;SDS011;48954;59.950;11.014;2022-10-20T00:16:00;6.00;;;2.40;;
62863;SDS011;48954;59.950;11.014;2022-10-20T00:18:26;4.70;;;2.40;;
62863;SDS011;48954;59.950;11.014;2022-10-20T00:20:53;6.00;;;3.00;;
62863;SDS011;48954;59.950;11.014;2022-10-20T00:23:19;6.70;;;2.90;;
62863;SDS011;48954;59.950;11.014;2022-10-20T00:25:45;5.80;;;3.10;;
62863;SDS011;48954;59.950;11.014;2022-10-20T00:28:11;5.30;;;3.00;;
62863;SDS011;48954;59.950;11.014;2022-10-20T00:30:37;4.00;;;1.90;;
62863;SDS011;48954;59.950;11.014;2022-10-20T00:33:04;5.10;;;2.20;;
62863;SDS011;48954;59.950;11.014;2022-10-20T00:35:36;3.20;;;1.80;;
62863;SDS011;48954;59.950;11.014;2022-10-20T00:38:03;4.50;;;2.10;;
62863;SDS011;48954;59.950;11.014;2022-10-20T00:40:33;3.60;;;1.90;;
62863;SDS011;48954;59.950;11.014;2022-10-20T00:42:59;5.40;;;2.40;;
62863;SDS011;48954;59.950;11.014;2022-10-20T00:45:25;5.20;;;2.40;;
62863;SDS011;48954;59.950;11.014;2022-10-20T00:47:53;5.60;;;2.50;;
62863;SDS011;48954;59.950;11.014;2022-10-20T00:50:28;4.80;;;2.20;;
62863;SDS011;48954;59.950;11.014;2022-10-20T00:55:27;9.20;;;3.30;;
62863;SDS011;48954;59.950;11.014;2022-10-20T00:57:56;8.80;;;3.10;;
62863;SDS011;48954;59.950;11.014;2022-10-20T01:00:24;8.90;;;4.70;;
62863;SDS011;48954;59.950;11.014;2022-10-20T01:02:52;8.00;;;3.10;;
62863;SDS011;48954;59.950;11.014;2022-10-20T01:05:21;9.70;;;3.70;;
62863;SDS011;48954;59.950;11.014;2022-10-20T01:07:48;11.50;;;3.90;;
62863;SDS011;48954;59.950;11.014;2022-10-20T01:10:14;14.80;;;3.90;;
62863;SDS011;48954;59.950;11.014;2022-10-20T01:12:52;12.30;;;3.60;;
62863;SDS011;48954;59.950;11.014;2022-10-20T01:15:26;7.50;;;2.60;;
62863;SDS011;48954;59.950;11.014;2022-10-20T01:18:02;5.50;;;2.30;;
62863;SDS011;48954;59.950;11.014;2022-10-20T01:20:43;7.10;;;2.50;;
62863;SDS011;48954;59.950;11.014;2022-10-20T01:29:15;7.50;;;2.00;;
62863;SDS011;48954;59.950;11.014;2022-10-20T01:35:11;9.10;;;2.40;;
62863;SDS011;48954;59.950;11.014;2022-10-20T01:37:50;7.40;;;2.60;;
62863;SDS011;48954;59.950;11.014;2022-10-20T01:43:11;18.70;;;4.60;;
62863;SDS011;48954;59.950;11.014;2022-10-20T01:45:41;10.70;;;3.50;;
62863;SDS011;48954;59.950;11.014;2022-10-20T01:48:10;23.20;;;4.00;;
62863;SDS011;48954;59.950;11.014;2022-10-20T01:50:38;11.40;;;3.50;;
62863;SDS011;48954;59.950;11.014;2022-10-20T01:53:08;11.00;;;3.70;;
62863;SDS011;48954;59.950;11.014;2022-10-20T01:55:36;12.20;;;3.40;;
62863;SDS011;48954;59.950;11.014;2022-10-20T02:00:35;16.70;;;5.30;;
62863;SDS011;48954;59.950;11.014;2022-10-20T02:08:38;13.00;;;4.00;;
62863;SDS011;48954;59.950;11.014;2022-10-20T02:11:14;10.90;;;3.50;;
62863;SDS011;48954;59.950;11.014;2022-10-20T02:14:03;11.80;;;3.50;;
62863;SDS011;48954;59.950;11.014;2022-10-20T02:16:32;12.00;;;2.10;;
62863;SDS011;48954;59.950;11.014;2022-10-20T02:19:04;14.50;;;3.10;;
62863;SDS011;48954;59.950;11.014;2022-10-20T02:21:33;11.80;;;3.20;;
62863;SDS011;48954;59.950;11.014;2022-10-20T02:23:59;6.10;;;2.50;;
62863;SDS011;48954;59.950;11.014;2022-10-20T02:26:28;6.20;;;2.30;;
62863;SDS011;48954;59.950;11.014;2022-10-20T02:28:56;6.40;;;2.40;;
62863;SDS011;48954;59.950;11.014;2022-10-20T02:31:25;3.80;;;1.80;;
62863;SDS011;48954;59.950;11.014;2022-10-20T02:33:52;5.80;;;2.30;;
62863;SDS011;48954;59.950;11.014;2022-10-20T02:36:20;5.30;;;2.70;;
62863;SDS011;48954;59.950;11.014;2022-10-20T02:38:52;6.20;;;2.10;;
62863;SDS011;48954;59.950;11.014;2022-10-20T02:41:18;4.50;;;2.40;;
62863;SDS011;48954;59.950;11.014;2022-10-20T02:43:44;4.30;;;1.70;;
62863;SDS011;48954;59.950;11.014;2022-10-20T02:46:10;3.90;;;1.80;;
62863;SDS011;48954;59.950;11.014;2022-10-20T02:48:36;5.20;;;2.70;;
62863;SDS011;48954;59.950;11.014;2022-10-20T02:51:02;5.80;;;2.30;;
62863;SDS011;48954;59.950;11.014;2022-10-20T02:53:29;8.20;;;3.10;;
62863;SDS011;48954;59.950;11.014;2022-10-20T02:55:55;8.20;;;3.70;;
62863;SDS011;48954;59.950;11.014;2022-10-20T02:58:21;7.10;;;3.00;;
62863;SDS011;48954;59.950;11.014;2022-10-20T03:00:48;4.90;;;2.60;;
62863;SDS011;48954;59.950;11.014;2022-10-20T03:03:15;6.40;;;3.40;;
62863;SDS011;48954;59.950;11.014;2022-10-20T03:05:41;9.10;;;2.90;;
62863;SDS011;48954;59.950;11.014;2022-10-20T03:08:07;7.60;;;2.50;;
62863;SDS011;48954;59.950;11.014;2022-10-20T03:10:36;7.10;;;2.90;;
62863;SDS011;48954;59.950;11.014;2022-10-20T03:13:02;5.80;;;2.10;;
62863;SDS011;48954;59.950;11.014;2022-10-20T03:15:29;4.70;;;1.50;;
62863;SDS011;48954;59.950;11.014;2022-10-20T03:17:54;4.40;;;1.90;;
62863;SDS011;48954;59.950;11.014;2022-10-20T03:20:20;3.10;;;1.40;;
62863;SDS011;48954;59.950;11.014;2022-10-20T03:22:47;8.10;;;1.70;;
62863;SDS011;48954;59.950;11.014;2022-10-20T03:25:13;3.50;;;1.50;;
62863;SDS011;48954;59.950;11.014;2022-10-20T03:27:39;22.00;;;2.10;;
62863;SDS011;48954;59.950;11.014;2022-10-20T03:30:05;5.10;;;2.10;;
62863;SDS011;48954;59.950;11.014;2022-10-20T03:32:31;3.80;;;1.50;;
62863;SDS011;48954;59.950;11.014;2022-10-20T03:34:57;6.50;;;2.50;;
62863;SDS011;48954;59.950;11.014;2022-10-20T03:37:23;4.50;;;1.70;;
62863;SDS011;48954;59.950;11.014;2022-10-20T03:39:49;6.10;;;1.80;;
62863;SDS011;48954;59.950;11.014;2022-10-20T03:42:15;6.50;;;2.20;;
62863;SDS011;48954;59.950;11.014;2022-10-20T03:44:40;6.30;;;2.30;;
62863;SDS011;48954;59.950;11.014;2022-10-20T03:47:07;3.40;;;1.50;;
62863;SDS011;48954;59.950;11.014;2022-10-20T03:49:32;20.20;;;3.10;;
62863;SDS011;48954;59.950;11.014;2022-10-20T03:51:58;13.70;;;2.50;;
62863;SDS011;48954;59.950;11.014;2022-10-20T03:54:24;3.80;;;1.80;;
62863;SDS011;48954;59.950;11.014;2022-10-20T03:56:50;5.50;;;1.80;;
62863;SDS011;48954;59.950;11.014;2022-10-20T03:59:15;7.90;;;2.80;;
62863;SDS011;48954;59.950;11.014;2022-10-20T04:01:42;8.10;;;2.70;;
62863;SDS011;48954;59.950;11.014;2022-10-20T04:04:09;4.50;;;1.50;;
62863;SDS011;48954;59.950;11.014;2022-10-20T04:06:35;3.50;;;1.40;;
62863;SDS011;48954;59.950;11.014;2022-10-20T04:09:09;3.40;;;1.50;;
62863;SDS011;48954;59.950;11.014;2022-10-20T04:11:35;5.30;;;1.50;;
62863;SDS011;48954;59.950;11.014;2022-10-20T04:14:00;5.50;;;2.00;;
62863;SDS011;48954;59.950;11.014;2022-10-20T04:16:26;3.40;;;1.20;;
62863;SDS011;48954;59.950;11.014;2022-10-20T04:18:52;4.00;;;1.90;;
62863;SDS011;48954;59.950;11.014;2022-10-20T04:21:19;6.90;;;1.60;;
62863;SDS011;48954;59.950;11.014;2022-10-20T04:23:45;4.90;;;1.80;;
62863;SDS011;48954;59.950;11.014;2022-10-20T04:26:12;4.40;;;1.40;;
62863;SDS011;48954;59.950;11.014;2022-10-20T04:28:39;6.90;;;1.60;;
62863;SDS011;48954;59.950;11.014;2022-10-20T04:31:06;8.50;;;2.30;;
62863;SDS011;48954;59.950;11.014;2022-10-20T04:33:35;5.90;;;2.20;;
62863;SDS011;48954;59.950;11.014;2022-10-20T04:36:05;7.80;;;2.40;;
62863;SDS011;48954;59.950;11.014;2022-10-20T04:38:35;3.70;;;1.30;;
62863;SDS011;48954;59.950;11.014;2022-10-20T04:41:02;13.00;;;2.50;;
62863;SDS011;48954;59.950;11.014;2022-10-20T04:43:33;5.90;;;1.70;;
62863;SDS011;48954;59.950;11.014;2022-10-20T04:46:03;6.60;;;2.90;;
62863;SDS011;48954;59.950;11.014;2022-10-20T04:48:36;6.00;;;2.40;;
62863;SDS011;48954;59.950;11.014;2022-10-20T04:51:06;6.80;;;2.50;;
62863;SDS011;48954;59.950;11.014;2022-10-20T04:53:35;10.00;;;2.50;;
62863;SDS011;48954;59.950;11.014;2022-10-20T04:56:06;5.90;;;2.50;;
62863;SDS011;48954;59.950;11.014;2022-10-20T04:58:34;11.40;;;2.40;;
62863;SDS011;48954;59.950;11.014;2022-10-20T05:01:01;9.40;;;3.40;;
62863;SDS011;48954;59.950;11.014;2022-10-20T05:03:38;6.30;;;2.30;;
62863;SDS011;48954;59.950;11.014;2022-10-20T05:06:14;11.80;;;4.30;;
62863;SDS011;48954;59.950;11.014;2022-10-20T05:08:48;12.00;;;3.80;;
62863;SDS011;48954;59.950;11.014;2022-10-20T05:11:15;14.80;;;4.10;;
62863;SDS011;48954;59.950;11.014;2022-10-20T05:13:42;9.50;;;2.90;;
62863;SDS011;48954;59.950;11.014;2022-10-20T05:16:08;7.40;;;2.80;;
62863;SDS011;48954;59.950;11.014;2022-10-20T05:18:35;7.70;;;2.80;;
62863;SDS011;48954;59.950;11.014;2022-10-20T05:21:06;8.80;;;3.10;;
62863;SDS011;48954;59.950;11.014;2022-10-20T05:23:35;11.30;;;4.80;;
62863;SDS011;48954;59.950;11.014;2022-10-20T05:26:18;9.20;;;3.90;;
62863;SDS011;48954;59.950;11.014;2022-10-20T05:28:44;15.10;;;3.30;;
62863;SDS011;48954;59.950;11.014;2022-10-20T05:31:14;7.80;;;3.50;;
62863;SDS011;48954;59.950;11.014;2022-10-20T05:33:47;7.20;;;2.70;;
62863;SDS011;48954;59.950;11.014;2022-10-20T05:36:16;7.70;;;3.30;;
62863;SDS011;48954;59.950;11.014;2022-10-20T05:38:44;9.20;;;3.10;;
62863;SDS011;48954;59.950;11.014;2022-10-20T05:41:13;10.30;;;4.30;;
62863;SDS011;48954;59.950;11.014;2022-10-20T05:43:46;5.80;;;3.30;;
62863;SDS011;48954;59.950;11.014;2022-10-20T05:46:12;10.50;;;3.80;;
62863;SDS011;48954;59.950;11.014;2022-10-20T05:48:38;9.80;;;3.90;;
62863;SDS011;48954;59.950;11.014;2022-10-20T05:51:11;8.60;;;3.50;;
62863;SDS011;48954;59.950;11.014;2022-10-20T05:53:39;16.40;;;3.80;;
62863;SDS011;48954;59.950;11.014;2022-10-20T05:56:06;7.70;;;3.10;;
62863;SDS011;48954;59.950;11.014;2022-10-20T05:58:34;8.10;;;2.80;;
62863;SDS011;48954;59.950;11.014;2022-10-20T06:01:07;8.80;;;2.80;;
62863;SDS011;48954;59.950;11.014;2022-10-20T06:03:35;13.80;;;4.40;;
62863;SDS011;48954;59.950;11.014;2022-10-20T06:06:02;13.40;;;3.80;;
62863;SDS011;48954;59.950;11.014;2022-10-20T06:08:33;8.90;;;3.30;;
62863;SDS011;48954;59.950;11.014;2022-10-20T06:11:04;14.10;;;4.70;;
62863;SDS011;48954;59.950;11.014;2022-10-20T06:13:33;7.40;;;2.90;;
62863;SDS011;48954;59.950;11.014;2022-10-20T06:16:04;10.20;;;3.90;;
62863;SDS011;48954;59.950;11.014;2022-10-20T06:18:31;6.40;;;3.00;;
62863;SDS011;48954;59.950;11.014;2022-10-20T06:21:00;12.60;;;2.70;;
62863;SDS011;48954;59.950;11.014;2022-10-20T06:23:28;6.80;;;2.70;;
62863;SDS011;48954;59.950;11.014;2022-10-20T06:26:00;10.90;;;3.30;;
62863;SDS011;48954;59.950;11.014;2022-10-20T06:28:31;13.20;;;4.00;;
62863;SDS011;48954;59.950;11.014;2022-10-20T06:31:15;14.80;;;3.80;;
62863;SDS011;48954;59.950;11.014;2022-10-20T06:33:53;17.40;;;3.70;;
62863;SDS011;48954;59.950;11.014;2022-10-20T06:36:20;10.60;;;3.50;;
62863;SDS011;48954;59.950;11.014;2022-10-20T06:38:46;13.10;;;3.40;;
62863;SDS011;48954;59.950;11.014;2022-10-20T06:41:14;8.10;;;3.70;;
62863;SDS011;48954;59.950;11.014;2022-10-20T06:43:43;5.50;;;2.00;;
62863;SDS011;48954;59.950;11.014;2022-10-20T06:46:11;8.60;;;2.70;;
62863;SDS011;48954;59.950;11.014;2022-10-20T06:48:38;6.90;;;2.50;;
62863;SDS011;48954;59.950;11.014;2022-10-20T06:51:07;13.50;;;4.50;;
62863;SDS011;48954;59.950;11.014;2022-10-20T06:53:41;11.50;;;3.10;;
62863;SDS011;48954;59.950;11.014;2022-10-20T06:56:11;8.60;;;2.50;;
62863;SDS011;48954;59.950;11.014;2022-10-20T06:58:43;19.40;;;4.20;;
62863;SDS011;48954;59.950;11.014;2022-10-20T07:03:41;9.60;;;2.60;;
62863;SDS011;48954;59.950;11.014;2022-10-20T07:06:08;9.20;;;2.70;;
62863;SDS011;48954;59.950;11.014;2022-10-20T07:08:38;6.20;;;2.30;;
62863;SDS011;48954;59.950;11.014;2022-10-20T07:11:26;6.90;;;2.30;;
62863;SDS011;48954;59.950;11.014;2022-10-20T07:13:54;5.70;;;2.60;;
62863;SDS011;48954;59.950;11.014;2022-10-20T07:16:23;8.60;;;3.50;;
62863;SDS011;48954;59.950;11.014;2022-10-20T07:18:50;10.90;;;3.40;;
62863;SDS011;48954;59.950;11.014;2022-10-20T07:21:19;8.80;;;3.50;;
62863;SDS011;48954;59.950;11.014;2022-10-20T07:23:51;9.40;;;2.80;;
62863;SDS011;48954;59.950;11.014;2022-10-20T07:26:35;10.50;;;4.00;;
62863;SDS011;48954;59.950;11.014;2022-10-20T07:29:03;5.60;;;2.90;;
62863;SDS011;48954;59.950;11.014;2022-10-20T07:31:34;11.20;;;3.50;;
62863;SDS011;48954;59.950;11.014;2022-10-20T07:34:02;11.40;;;4.10;;
62863;SDS011;48954;59.950;11.014;2022-10-20T07:36:32;9.00;;;3.30;;
62863;SDS011;48954;59.950;11.014;2022-10-20T07:38:59;7.00;;;3.20;;
62863;SDS011;48954;59.950;11.014;2022-10-20T07:41:26;7.80;;;3.00;;
62863;SDS011;48954;59.950;11.014;2022-10-20T07:43:56;11.30;;;5.00;;
62863;SDS011;48954;59.950;11.014;2022-10-20T07:46:43;16.90;;;5.90;;
62863;SDS011;48954;59.950;11.014;2022-10-20T07:49:09;6.60;;;2.60;;
62863;SDS011;48954;59.950;11.014;2022-10-20T07:51:45;8.50;;;4.10;;
62863;SDS011;48954;59.950;11.014;2022-10-20T07:54:14;12.60;;;4.80;;
62863;SDS011;48954;59.950;11.014;2022-10-20T07:56:40;7.00;;;3.10;;
62863;SDS011;48954;59.950;11.014;2022-10-20T07:59:08;12.00;;;4.20;;
62863;SDS011;48954;59.950;11.014;2022-10-20T08:01:35;7.00;;;3.20;;
62863;SDS011;48954;59.950;11.014;2022-10-20T08:04:02;10.00;;;4.50;;
62863;SDS011;48954;59.950;11.014;2022-10-20T08:06:28;8.00;;;3.20;;
62863;SDS011;48954;59.950;11.014;2022-10-20T08:08:54;8.10;;;3.90;;
62863;SDS011;48954;59.950;11.014;2022-10-20T08:11:21;9.10;;;3.30;;
62863;SDS011;48954;59.950;11.014;2022-10-20T08:13:47;6.40;;;3.20;;
62863;SDS011;48954;59.950;11.014;2022-10-20T08:16:13;7.40;;;3.30;;
62863;SDS011;48954;59.950;11.014;2022-10-20T08:18:40;6.90;;;3.50;;
62863;SDS011;48954;59.950;11.014;2022-10-20T08:21:16;8.40;;;4.50;;
62863;SDS011;48954;59.950;11.014;2022-10-20T08:23:45;7.80;;;3.50;;
62863;SDS011;48954;59.950;11.014;2022-10-20T08:26:15;11.30;;;3.80;;
62863;SDS011;48954;59.950;11.014;2022-10-20T08:28:43;8.60;;;4.00;;
62863;SDS011;48954;59.950;11.014;2022-10-20T08:31:15;12.20;;;6.20;;
62863;SDS011;48954;59.950;11.014;2022-10-20T08:33:44;10.70;;;4.50;;
62863;SDS011;48954;59.950;11.014;2022-10-20T08:36:13;13.40;;;5.90;;
62863;SDS011;48954;59.950;11.014;2022-10-20T08:38:40;8.40;;;4.00;;
62863;SDS011;48954;59.950;11.014;2022-10-20T08:41:11;13.30;;;5.60;;
62863;SDS011;48954;59.950;11.014;2022-10-20T08:43:59;12.80;;;6.10;;
62863;SDS011;48954;59.950;11.014;2022-10-20T08:46:30;9.70;;;4.10;;
62863;SDS011;48954;59.950;11.014;2022-10-20T08:48:59;10.50;;;4.60;;
62863;SDS011;48954;59.950;11.014;2022-10-20T08:51:31;7.40;;;3.70;;
62863;SDS011;48954;59.950;11.014;2022-10-20T08:53:59;16.00;;;7.10;;
62863;SDS011;48954;59.950;11.014;2022-10-20T08:56:28;9.70;;;3.90;;
62863;SDS011;48954;59.950;11.014;2022-10-20T08:58:55;8.40;;;4.30;;
62863;SDS011;48954;59.950;11.014;2022-10-20T09:01:23;14.10;;;5.60;;
62863;SDS011;48954;59.950;11.014;2022-10-20T09:04:03;13.60;;;5.00;;
62863;SDS011;48954;59.950;11.014;2022-10-20T09:06:39;12.90;;;4.90;;
62863;SDS011;48954;59.950;11.014;2022-10-20T09:09:10;10.60;;;4.20;;
62863;SDS011;48954;59.950;11.014;2022-10-20T09:11:41;9.20;;;4.30;;
62863;SDS011;48954;59.950;11.014;2022-10-20T09:14:07;8.00;;;3.70;;
62863;SDS011;48954;59.950;11.014;2022-10-20T09:16:35;6.40;;;3.50;;
62863;SDS011;48954;59.950;11.014;2022-10-20T09:19:01;4.50;;;2.20;;
62863;SDS011;48954;59.950;11.014;2022-10-20T09:21:27;9.00;;;4.30;;
62863;SDS011;48954;59.950;11.014;2022-10-20T09:23:54;9.40;;;4.00;;
62863;SDS011;48954;59.950;11.014;2022-10-20T09:26:35;6.00;;;3.00;;
62863;SDS011;48954;59.950;11.014;2022-10-20T09:29:06;4.50;;;2.40;;
62863;SDS011;48954;59.950;11.014;2022-10-20T09:31:35;6.90;;;3.20;;
62863;SDS011;48954;59.950;11.014;2022-10-20T09:34:48;6.40;;;3.30;;
62863;SDS011;48954;59.950;11.014;2022-10-20T09:39:38;6.50;;;3.20;;
62863;SDS011;48954;59.950;11.014;2022-10-20T09:42:18;7.30;;;3.80;;
62863;SDS011;48954;59.950;11.014;2022-10-20T09:44:50;7.10;;;3.80;;
62863;SDS011;48954;59.950;11.014;2022-10-20T09:47:18;7.70;;;4.10;;
62863;SDS011;48954;59.950;11.014;2022-10-20T09:49:45;6.60;;;3.20;;
62863;SDS011;48954;59.950;11.014;2022-10-20T09:52:24;6.70;;;3.60;;
62863;SDS011;48954;59.950;11.014;2022-10-20T09:54:53;7.60;;;3.70;;
62863;SDS011;48954;59.950;11.014;2022-10-20T09:57:24;11.20;;;5.20;;
62863;SDS011;48954;59.950;11.014;2022-10-20T09:59:51;11.30;;;4.60;;
62863;SDS011;48954;59.950;11.014;2022-10-20T10:04:46;10.00;;;3.90;;
62863;SDS011;48954;59.950;11.014;2022-10-20T10:10:03;7.20;;;3.60;;
62863;SDS011;48954;59.950;11.014;2022-10-20T10:12:54;11.10;;;5.20;;
62863;SDS011;48954;59.950;11.014;2022-10-20T10:15:25;8.70;;;4.30;;
62863;SDS011;48954;59.950;11.014;2022-10-20T10:18:11;7.90;;;3.80;;
62863;SDS011;48954;59.950;11.014;2022-10-20T10:20:45;11.50;;;5.00;;
62863;SDS011;48954;59.950;11.014;2022-10-20T10:25:50;11.70;;;5.10;;
62863;SDS011;48954;59.950;11.014;2022-10-20T10:31:35;9.50;;;4.60;;
62863;SDS011;48954;59.950;11.014;2022-10-20T10:33:56;10.30;;;5.10;;
62863;SDS011;48954;59.950;11.014;2022-10-20T10:36:42;8.70;;;4.20;;
62863;SDS011;48954;59.950;11.014;2022-10-20T10:39:14;15.40;;;6.00;;
62863;SDS011;48954;59.950;11.014;2022-10-20T10:55:32;10.00;;;5.10;;
62863;SDS011;48954;59.950;11.014;2022-10-20T11:00:55;10.60;;;4.70;;
62863;SDS011;48954;59.950;11.014;2022-10-20T11:12:03;10.10;;;4.60;;
62863;SDS011;48954;59.950;11.014;2022-10-20T11:26:11;14.20;;;6.20;;
62863;SDS011;48954;59.950;11.014;2022-10-20T11:28:45;12.50;;;5.60;;
62863;SDS011;48954;59.950;11.014;2022-10-20T11:33:55;9.20;;;4.60;;
62863;SDS011;48954;59.950;11.014;2022-10-20T11:36:30;10.50;;;5.20;;
62863;SDS011;48954;59.950;11.014;2022-10-20T11:39:00;13.40;;;4.90;;
62863;SDS011;48954;59.950;11.014;2022-10-20T11:41:49;17.50;;;6.50;;
62863;SDS011;48954;59.950;11.014;2022-10-20T11:44:17;12.20;;;4.70;;
62863;SDS011;48954;59.950;11.014;2022-10-20T11:46:54;15.80;;;6.90;;
62863;SDS011;48954;59.950;11.014;2022-10-20T11:49:24;14.20;;;6.80;;
62863;SDS011;48954;59.950;11.014;2022-10-20T12:12:02;11.70;;;4.70;;
62863;SDS011;48954;59.950;11.014;2022-10-20T12:14:36;12.50;;;5.10;;
62863;SDS011;48954;59.950;11.014;2022-10-20T12:17:22;14.30;;;5.70;;
62863;SDS011;48954;59.950;11.014;2022-10-20T12:22:45;15.00;;;6.50;;
62863;SDS011;48954;59.950;11.014;2022-10-20T12:30:56;16.80;;;6.60;;
62863;SDS011;48954;59.950;11.014;2022-10-20T12:38:43;15.60;;;5.90;;
62863;SDS011;48954;59.950;11.014;2022-10-20T12:41:25;14.60;;;5.50;;
62863;SDS011;48954;59.950;11.014;2022-10-20T12:43:53;14.10;;;6.10;;
62863;SDS011;48954;59.950;11.014;2022-10-20T12:46:26;18.80;;;6.50;;
62863;SDS011;48954;59.950;11.014;2022-10-20T12:48:56;13.40;;;5.70;;
62863;SDS011;48954;59.950;11.014;2022-10-20T12:51:45;14.90;;;5.90;;
62863;SDS011;48954;59.950;11.014;2022-10-20T12:54:27;17.50;;;7.20;;
62863;SDS011;48954;59.950;11.014;2022-10-20T12:57:01;14.90;;;5.70;;
62863;SDS011;48954;59.950;11.014;2022-10-20T13:04:52;23.40;;;8.70;;
62863;SDS011;48954;59.950;11.014;2022-10-20T13:12:53;16.20;;;7.90;;
62863;SDS011;48954;59.950;11.014;2022-10-20T13:15:45;18.20;;;7.60;;
62863;SDS011;48954;59.950;11.014;2022-10-20T13:18:28;17.20;;;8.00;;
62863;SDS011;48954;59.950;11.014;2022-10-20T13:26:25;18.70;;;8.20;;
62863;SDS011;48954;59.950;11.014;2022-10-20T13:29:01;33.60;;;10.40;;
62863;SDS011;48954;59.950;11.014;2022-10-20T13:36:52;24.60;;;10.20;;
62863;SDS011;48954;59.950;11.014;2022-10-20T13:44:55;31.40;;;11.60;;
62863;SDS011;48954;59.950;11.014;2022-10-20T13:50:11;32.80;;;12.00;;
62863;SDS011;48954;59.950;11.014;2022-10-20T13:52:39;21.50;;;9.30;;
62863;SDS011;48954;59.950;11.014;2022-10-20T13:55:14;23.30;;;10.10;;
62863;SDS011;48954;59.950;11.014;2022-10-20T13:58:06;29.90;;;12.60;;
62863;SDS011;48954;59.950;11.014;2022-10-20T14:03:56;24.60;;;10.40;;
62863;SDS011;48954;59.950;11.014;2022-10-20T14:06:32;22.50;;;10.00;;
62863;SDS011;48954;59.950;11.014;2022-10-20T14:09:11;22.10;;;9.60;;
62863;SDS011;48954;59.950;11.014;2022-10-20T14:11:42;20.70;;;8.80;;
62863;SDS011;48954;59.950;11.014;2022-10-20T14:14:12;23.80;;;10.80;;
62863;SDS011;48954;59.950;11.014;2022-10-20T14:16:44;27.00;;;11.00;;
62863;SDS011;48954;59.950;11.014;2022-10-20T14:19:18;19.60;;;9.70;;
62863;SDS011;48954;59.950;11.014;2022-10-20T14:21:46;22.60;;;9.20;;
62863;SDS011;48954;59.950;11.014;2022-10-20T14:24:32;23.00;;;9.90;;
62863;SDS011;48954;59.950;11.014;2022-10-20T14:27:02;26.80;;;10.80;;
62863;SDS011;48954;59.950;11.014;2022-10-20T14:29:34;24.80;;;10.10;;
62863;SDS011;48954;59.950;11.014;2022-10-20T14:32:04;25.80;;;11.00;;
62863;SDS011;48954;59.950;11.014;2022-10-20T14:34:33;25.00;;;10.40;;
62863;SDS011;48954;59.950;11.014;2022-10-20T14:37:00;22.20;;;10.10;;
62863;SDS011;48954;59.950;11.014;2022-10-20T14:39:34;18.40;;;8.50;;
62863;SDS011;48954;59.950;11.014;2022-10-20T14:42:03;27.40;;;11.30;;
62863;SDS011;48954;59.950;11.014;2022-10-20T14:44:41;28.60;;;10.90;;
62863;SDS011;48954;59.950;11.014;2022-10-20T14:47:09;21.20;;;9.10;;
62863;SDS011;48954;59.950;11.014;2022-10-20T14:49:39;25.20;;;11.30;;
62863;SDS011;48954;59.950;11.014;2022-10-20T14:54:43;27.50;;;11.00;;
62863;SDS011;48954;59.950;11.014;2022-10-20T14:59:48;19.70;;;9.50;;
62863;SDS011;48954;59.950;11.014;2022-10-20T15:02:16;24.70;;;11.10;;
62863;SDS011;48954;59.950;11.014;2022-10-20T15:04:46;20.90;;;9.40;;
62863;SDS011;48954;59.950;11.014;2022-10-20T15:07:14;23.00;;;9.90;;
62863;SDS011;48954;59.950;11.014;2022-10-20T15:09:55;24.10;;;11.20;;
62863;SDS011;48954;59.950;11.014;2022-10-20T15:15:34;26.80;;;11.30;;
62863;SDS011;48954;59.950;11.014;2022-10-20T15:22:58;33.00;;;13.60;;
62863;SDS011;48954;59.950;11.014;2022-10-20T15:25:26;21.70;;;10.20;;
62863;SDS011;48954;59.950;11.014;2022-10-20T15:27:55;24.00;;;10.50;;
62863;SDS011;48954;59.950;11.014;2022-10-20T15:30:23;22.40;;;9.90;;
62863;SDS011;48954;59.950;11.014;2022-10-20T15:32:50;21.50;;;10.10;;
62863;SDS011;48954;59.950;11.014;2022-10-20T15:35:18;28.50;;;10.40;;
62863;SDS011;48954;59.950;11.014;2022-10-20T15:37:47;26.30;;;11.40;;
62863;SDS011;48954;59.950;11.014;2022-10-20T15:40:13;21.70;;;8.90;;
62863;SDS011;48954;59.950;11.014;2022-10-20T15:42:39;22.60;;;10.10;;
62863;SDS011;48954;59.950;11.014;2022-10-20T15:45:19;28.00;;;11.20;;
62863;SDS011;48954;59.950;11.014;2022-10-20T15:47:47;24.60;;;10.70;;
62863;SDS011;48954;59.950;11.014;2022-10-20T15:50:13;22.80;;;9.50;;
62863;SDS011;48954;59.950;11.014;2022-10-20T15:52:40;19.60;;;8.20;;
62863;SDS011;48954;59.950;11.014;2022-10-20T15:55:19;23.10;;;10.30;;
62863;SDS011;48954;59.950;11.014;2022-10-20T15:57:49;27.70;;;10.90;;
62863;SDS011;48954;59.950;11.014;2022-10-20T16:00:17;26.00;;;11.60;;
62863;SDS011;48954;59.950;11.014;2022-10-20T16:02:45;30.90;;;12.60;;
62863;SDS011;48954;59.950;11.014;2022-10-20T16:05:15;44.00;;;16.60;;
62863;SDS011;48954;59.950;11.014;2022-10-20T16:07:42;36.30;;;15.00;;
62863;SDS011;48954;59.950;11.014;2022-10-20T16:10:09;29.20;;;11.50;;
62863;SDS011;48954;59.950;11.014;2022-10-20T16:12:37;32.20;;;11.40;;
62863;SDS011;48954;59.950;11.014;2022-10-20T16:15:05;27.40;;;10.90;;
62863;SDS011;48954;59.950;11.014;2022-10-20T16:17:32;38.30;;;12.20;;
62863;SDS011;48954;59.950;11.014;2022-10-20T16:19:58;33.60;;;13.10;;
62863;SDS011;48954;59.950;11.014;2022-10-20T16:22:26;27.70;;;12.20;;
62863;SDS011;48954;59.950;11.014;2022-10-20T16:24:52;22.00;;;10.40;;
62863;SDS011;48954;59.950;11.014;2022-10-20T16:27:18;29.00;;;11.90;;
62863;SDS011;48954;59.950;11.014;2022-10-20T16:29:44;22.60;;;10.30;;
62863;SDS011;48954;59.950;11.014;2022-10-20T16:32:10;29.20;;;13.20;;
62863;SDS011;48954;59.950;11.014;2022-10-20T16:34:36;31.60;;;13.50;;
62863;SDS011;48954;59.950;11.014;2022-10-20T16:37:02;30.50;;;12.60;;
62863;SDS011;48954;59.950;11.014;2022-10-20T16:39:28;28.70;;;11.60;;
62863;SDS011;48954;59.950;11.014;2022-10-20T16:41:54;28.60;;;12.40;;
62863;SDS011;48954;59.950;11.014;2022-10-20T16:44:19;27.00;;;10.80;;
62863;SDS011;48954;59.950;11.014;2022-10-20T16:46:45;25.90;;;11.20;;
62863;SDS011;48954;59.950;11.014;2022-10-20T16:49:11;31.50;;;12.40;;
62863;SDS011;48954;59.950;11.014;2022-10-20T16:51:36;24.90;;;10.80;;
62863;SDS011;48954;59.950;11.014;2022-10-20T16:54:04;22.30;;;9.60;;
62863;SDS011;48954;59.950;11.014;2022-10-20T16:56:45;29.40;;;11.70;;
62863;SDS011;48954;59.950;11.014;2022-10-20T16:59:11;28.70;;;12.60;;
62863;SDS011;48954;59.950;11.014;2022-10-20T17:01:38;27.40;;;12.50;;
62863;SDS011;48954;59.950;11.014;2022-10-20T17:04:03;22.40;;;10.40;;
62863;SDS011;48954;59.950;11.014;2022-10-20T17:06:29;23.90;;;10.20;;
62863;SDS011;48954;59.950;11.014;2022-10-20T17:08:56;24.50;;;10.20;;
62863;SDS011;48954;59.950;11.014;2022-10-20T17:11:25;24.20;;;10.70;;
62863;SDS011;48954;59.950;11.014;2022-10-20T17:13:53;23.90;;;10.60;;
62863;SDS011;48954;59.950;11.014;2022-10-20T17:16:21;26.90;;;11.40;;
62863;SDS011;48954;59.950;11.014;2022-10-20T17:18:57;28.90;;;12.50;;
62863;SDS011;48954;59.950;11.014;2022-10-20T17:21:30;24.50;;;10.30;;
62863;SDS011;48954;59.950;11.014;2022-10-20T17:23:56;25.10;;;10.30;;